createdAt,value
2019-04-05T00:01:32.022Z,5.90
2019-04-05T00:03:58.848Z,6.00
2019-04-05T00:06:25.629Z,5.90
2019-04-05T00:08:52.432Z,5.80
2019-04-05T00:11:19.572Z,5.90
2019-04-05T00:13:46.376Z,5.80
2019-04-05T00:16:13.228Z,5.80
2019-04-05T00:18:40.011Z,5.90
2019-04-05T00:21:06.789Z,5.80
2019-04-05T00:23:33.684Z,5.80
2019-04-05T00:26:00.517Z,5.90
2019-04-05T00:28:27.335Z,5.80
2019-04-05T00:30:54.181Z,5.80
2019-04-05T00:33:21.052Z,5.70
2019-04-05T00:35:47.832Z,5.70
2019-04-05T00:38:14.672Z,5.80
2019-04-05T00:40:41.504Z,5.70
2019-04-05T00:43:08.281Z,5.80
2019-04-05T00:45:35.111Z,5.70
2019-04-05T00:48:01.901Z,5.70
2019-04-05T00:50:28.728Z,5.70
2019-04-05T00:52:55.524Z,5.60
2019-04-05T00:55:22.475Z,5.70
2019-04-05T00:57:49.548Z,5.70
2019-04-05T01:00:16.798Z,5.60
2019-04-05T01:02:43.576Z,5.60
2019-04-05T01:05:12.219Z,5.50
2019-04-05T01:07:39.197Z,5.40
2019-04-05T01:10:06.487Z,5.40
2019-04-05T01:12:33.317Z,5.40
2019-04-05T01:15:00.536Z,5.40
2019-04-05T01:17:27.813Z,5.40
2019-04-05T01:19:58.196Z,5.40
2019-04-05T01:22:26.525Z,5.40
2019-04-05T01:24:53.307Z,5.40
2019-04-05T01:27:23.365Z,5.60
2019-04-05T01:29:50.742Z,5.60
2019-04-05T01:32:17.612Z,5.60
2019-04-05T01:34:44.444Z,5.60
2019-04-05T01:37:11.219Z,5.60
2019-04-05T01:39:38.052Z,5.60
2019-04-05T01:42:05.844Z,5.50
2019-04-05T01:44:33.064Z,5.40
2019-04-05T01:47:00.008Z,5.50
2019-04-05T01:49:26.844Z,5.60
2019-04-05T01:51:53.820Z,5.60
2019-04-05T01:54:20.652Z,5.60
2019-04-05T01:56:47.433Z,5.50
2019-04-05T01:59:14.270Z,5.50
2019-04-05T02:01:41.092Z,5.50
2019-04-05T02:04:07.934Z,5.40
2019-04-05T02:06:34.693Z,5.40
2019-04-05T02:09:01.565Z,5.50
2019-04-05T02:11:28.415Z,5.40
2019-04-05T02:13:55.244Z,5.50
2019-04-05T02:16:22.081Z,5.50
2019-04-05T02:18:49.260Z,5.60
2019-04-05T02:21:16.091Z,5.50
2019-04-05T02:23:42.883Z,5.60
2019-04-05T02:26:09.824Z,5.70
2019-04-05T02:28:36.616Z,5.70
2019-04-05T02:31:03.642Z,5.80
2019-04-05T02:33:30.522Z,5.80
2019-04-05T02:35:58.870Z,5.80
2019-04-05T02:38:25.663Z,5.80
2019-04-05T02:40:53.836Z,5.80
2019-04-05T02:43:21.987Z,5.80
2019-04-05T02:45:49.378Z,5.70
2019-04-05T02:48:17.550Z,5.70
2019-04-05T02:50:48.017Z,5.70
2019-04-05T02:53:17.300Z,5.70
2019-04-05T02:55:45.536Z,5.70
2019-04-05T02:58:13.007Z,5.60
2019-04-05T03:00:40.949Z,5.70
2019-04-05T03:03:07.781Z,5.80
2019-04-05T03:05:35.568Z,5.80
2019-04-05T03:08:03.300Z,5.70
2019-04-05T03:10:54.609Z,5.70
2019-04-05T03:13:23.248Z,5.70
2019-04-05T03:15:51.537Z,5.80
2019-04-05T03:18:18.968Z,5.70
2019-04-05T03:20:45.950Z,5.70
2019-04-05T03:23:13.733Z,5.60
2019-04-05T03:25:40.761Z,5.60
2019-04-05T03:28:07.940Z,5.60
2019-04-05T03:30:35.182Z,5.60
2019-04-05T03:33:02.189Z,5.60
2019-04-05T03:35:29.115Z,5.60
2019-04-05T03:37:56.293Z,5.60
2019-04-05T03:40:23.077Z,5.60
2019-04-05T03:42:50.106Z,5.70
2019-04-05T03:45:17.142Z,5.70
2019-04-05T03:47:44.114Z,5.60
2019-04-05T03:50:11.264Z,5.60
2019-04-05T03:52:38.245Z,5.50
2019-04-05T03:55:05.625Z,5.50
2019-04-05T03:57:32.467Z,5.50
2019-04-05T03:59:59.344Z,5.60
2019-04-05T04:02:26.172Z,5.60
2019-04-05T04:04:53.754Z,5.70
2019-04-05T04:07:20.701Z,5.70
2019-04-05T04:09:47.550Z,5.60
2019-04-05T04:12:14.434Z,5.70
2019-04-05T04:14:41.290Z,5.70
2019-04-05T04:17:12.950Z,5.70
2019-04-05T04:19:37.685Z,5.60
2019-04-05T04:22:20.296Z,5.60
2019-04-05T04:24:47.724Z,5.50
2019-04-05T04:27:15.013Z,5.60
2019-04-05T04:29:41.856Z,5.60
2019-04-05T04:32:08.655Z,5.60
2019-04-05T04:34:35.537Z,5.70
2019-04-05T04:37:03.621Z,5.80
2019-04-05T04:39:30.801Z,5.80
2019-04-05T04:41:57.643Z,5.80
2019-04-05T04:44:24.980Z,6.00
2019-04-05T04:46:52.368Z,6.00
2019-04-05T04:49:19.610Z,5.90
2019-04-05T04:51:46.640Z,5.80
2019-04-05T04:54:13.432Z,5.70
2019-04-05T04:56:40.368Z,5.70
2019-04-05T04:59:07.148Z,5.60
2019-04-05T05:01:34.084Z,5.60
2019-04-05T05:04:00.872Z,5.60
2019-04-05T05:06:28.205Z,5.60
2019-04-05T05:08:55.036Z,5.70
2019-04-05T05:11:21.921Z,5.70
2019-04-05T05:13:48.752Z,5.70
2019-04-05T05:16:15.884Z,5.70
2019-04-05T05:18:42.920Z,5.70
2019-04-05T05:21:09.919Z,5.70
2019-04-05T05:23:36.944Z,5.80
2019-04-05T05:26:03.838Z,5.80
2019-04-05T05:28:32.804Z,5.80
2019-04-05T05:30:59.304Z,5.70
2019-04-05T05:33:26.093Z,5.70
2019-04-05T05:35:53.026Z,5.70
2019-04-05T05:38:19.990Z,5.70
2019-04-05T05:40:53.534Z,5.60
2019-04-05T05:43:23.591Z,5.50
2019-04-05T05:45:49.269Z,5.50
2019-04-05T05:48:17.062Z,5.50
2019-04-05T05:50:44.326Z,5.50
2019-04-05T05:53:12.697Z,5.60
2019-04-05T05:55:39.761Z,5.60
2019-04-05T05:58:06.826Z,5.60
2019-04-05T06:00:33.821Z,5.60
2019-04-05T06:03:00.735Z,5.70
2019-04-05T06:05:27.712Z,5.60
2019-04-05T06:07:54.489Z,5.70
2019-04-05T06:10:21.347Z,5.70
2019-04-05T06:12:48.129Z,5.70
2019-04-05T06:15:14.914Z,5.70
2019-04-05T06:17:42.061Z,5.70
2019-04-05T06:20:09.350Z,5.80
2019-04-05T06:22:36.187Z,5.90
2019-04-05T06:25:05.170Z,5.90
2019-04-05T06:27:35.163Z,6.00
2019-04-05T06:30:00.757Z,6.00
2019-04-05T06:32:27.593Z,6.00
2019-04-05T06:34:54.817Z,6.00
2019-04-05T06:37:21.670Z,6.20
2019-04-05T06:39:48.503Z,6.20
2019-04-05T06:42:15.303Z,6.30
2019-04-05T06:44:42.588Z,6.40
2019-04-05T06:47:09.488Z,6.40
2019-04-05T06:49:36.316Z,6.40
2019-04-05T06:52:03.263Z,6.30
2019-04-05T06:54:30.050Z,6.30
2019-04-05T06:56:56.900Z,6.40
2019-04-05T06:59:23.697Z,6.40
2019-04-05T07:01:50.535Z,6.20
2019-04-05T07:04:17.324Z,6.20
2019-04-05T07:06:44.177Z,6.30
2019-04-05T07:09:11.005Z,6.60
2019-04-05T07:11:37.797Z,6.90
2019-04-05T07:14:04.591Z,7.00
2019-04-05T07:16:31.380Z,7.00
2019-04-05T07:18:58.240Z,7.30
2019-04-05T07:21:25.024Z,7.50
2019-04-05T07:23:52.084Z,6.90
2019-04-05T07:26:20.967Z,6.80
2019-04-05T07:28:47.623Z,7.00
2019-04-05T07:31:14.400Z,7.30
2019-04-05T07:33:41.333Z,7.50
2019-04-05T07:36:08.494Z,7.50
2019-04-05T07:38:35.695Z,7.50
2019-04-05T07:41:02.536Z,7.80
2019-04-05T07:43:29.343Z,8.00
2019-04-05T07:45:56.181Z,7.80
2019-04-05T07:48:22.962Z,7.90
2019-04-05T07:50:49.807Z,8.00
2019-04-05T07:53:16.591Z,8.20
2019-04-05T07:55:43.429Z,8.30
2019-04-05T07:58:10.216Z,8.30
2019-04-05T08:00:48.870Z,8.20
2019-04-05T08:03:16.364Z,8.10
2019-04-05T08:05:43.356Z,8.00
2019-04-05T08:08:19.633Z,7.90
2019-04-05T08:10:46.630Z,7.80
2019-04-05T08:13:14.595Z,7.80
2019-04-05T08:15:41.984Z,7.70
2019-04-05T08:18:08.840Z,7.70
2019-04-05T08:20:35.672Z,7.80
2019-04-05T08:23:02.510Z,7.80
2019-04-05T08:25:29.297Z,7.80
2019-04-05T08:27:56.132Z,7.80
2019-04-05T08:30:22.949Z,7.90
2019-04-05T08:32:49.821Z,8.00
2019-04-05T08:35:16.656Z,8.10
2019-04-05T08:37:43.452Z,8.00
2019-04-05T08:40:10.593Z,8.00
2019-04-05T08:42:37.372Z,7.70
2019-04-05T08:45:05.600Z,7.60
2019-04-05T08:47:32.396Z,7.70
2019-04-05T08:49:59.258Z,7.50
2019-04-05T08:52:27.128Z,7.60
2019-04-05T08:54:54.315Z,7.60
2019-04-05T08:57:21.153Z,7.70
2019-04-05T08:59:48.001Z,7.70
2019-04-05T09:02:14.852Z,7.60
2019-04-05T09:04:41.996Z,7.60
2019-04-05T09:07:08.794Z,7.70
2019-04-05T09:09:35.835Z,7.60
2019-04-05T09:12:11.177Z,7.60
2019-04-05T09:14:38.264Z,7.80
2019-04-05T09:17:05.097Z,7.80
2019-04-05T09:19:31.881Z,7.80
2019-04-05T09:21:58.842Z,7.80
2019-04-05T09:24:25.633Z,7.90
2019-04-05T09:26:54.270Z,7.80
2019-04-05T09:29:21.084Z,7.60
2019-04-05T09:31:47.956Z,7.50
2019-04-05T09:34:15.222Z,7.50
2019-04-05T09:36:41.997Z,7.40
2019-04-05T09:39:15.270Z,7.40
2019-04-05T09:41:39.328Z,7.20
2019-04-05T09:44:06.178Z,7.20
2019-04-05T09:46:45.648Z,7.10
2019-04-05T09:49:01.604Z,7.20
2019-04-05T09:51:28.448Z,7.30
2019-04-05T09:53:55.339Z,7.40
2019-04-05T09:56:22.199Z,7.30
2019-04-05T09:58:48.982Z,7.30
2019-04-05T10:01:15.818Z,7.30
2019-04-05T10:03:42.609Z,7.40
2019-04-05T10:06:09.421Z,7.40
2019-04-05T10:08:36.232Z,7.40
2019-04-05T10:11:03.018Z,7.50
2019-04-05T10:13:29.865Z,7.30
2019-04-05T10:15:56.642Z,7.30
2019-04-05T10:18:23.465Z,7.10
2019-04-05T10:20:50.265Z,7.20
2019-04-05T10:23:17.149Z,7.20
2019-04-05T10:25:44.269Z,7.40
2019-04-05T10:28:11.272Z,7.70
2019-04-05T10:30:38.108Z,8.00
2019-04-05T10:33:04.958Z,8.00
2019-04-05T10:35:31.811Z,8.20
2019-04-05T10:37:58.627Z,8.10
2019-04-05T10:40:25.445Z,8.10
2019-04-05T10:42:52.284Z,8.10
2019-04-05T10:45:19.076Z,8.20
2019-04-05T10:47:45.934Z,8.40
2019-04-05T10:50:13.701Z,8.60
2019-04-05T10:52:40.481Z,8.80
2019-04-05T10:55:08.052Z,8.90
2019-04-05T10:57:34.916Z,8.80
2019-04-05T11:00:01.873Z,8.90
2019-04-05T11:02:28.713Z,8.90
2019-04-05T11:04:55.502Z,9.10
2019-04-05T11:07:22.404Z,9.20
2019-04-05T11:09:49.193Z,9.40
2019-04-05T11:12:16.035Z,9.40
2019-04-05T11:14:42.884Z,9.20
2019-04-05T11:17:09.740Z,9.20
2019-04-05T11:19:36.520Z,9.30
2019-04-05T11:22:03.567Z,9.30
2019-04-05T11:24:30.401Z,9.40
2019-04-05T11:26:57.250Z,9.30
2019-04-05T11:29:24.101Z,9.00
2019-04-05T11:31:56.900Z,8.30
2019-04-05T11:34:19.477Z,8.50
2019-04-05T11:36:46.308Z,8.60
2019-04-05T11:39:13.318Z,8.80
2019-04-05T11:41:41.809Z,9.10
2019-04-05T11:44:08.688Z,9.10
2019-04-05T11:46:37.465Z,9.00
2019-04-05T11:49:04.573Z,8.70
2019-04-05T11:51:31.503Z,8.70
2019-04-05T11:53:58.292Z,9.10
2019-04-05T11:56:25.129Z,8.90
2019-04-05T11:58:51.913Z,8.90
2019-04-05T12:01:23.841Z,9.00
2019-04-05T12:03:50.620Z,9.10
2019-04-05T12:06:17.450Z,9.30
2019-04-05T12:08:44.239Z,9.40
2019-04-05T12:11:11.078Z,9.60
2019-04-05T12:13:37.860Z,9.60
2019-04-05T12:16:06.144Z,9.50
2019-04-05T12:18:34.786Z,9.40
2019-04-05T12:21:05.031Z,9.40
2019-04-05T12:23:33.365Z,9.50
2019-04-05T12:25:59.314Z,9.20
2019-04-05T12:28:26.164Z,9.50
2019-04-05T12:30:53.396Z,9.50
2019-04-05T12:33:20.454Z,9.70
2019-04-05T12:35:47.412Z,9.50
2019-04-05T12:38:27.974Z,9.60
2019-04-05T12:40:44.692Z,9.60
2019-04-05T12:43:13.613Z,9.60
2019-04-05T12:45:40.113Z,9.40
2019-04-05T12:48:06.949Z,9.50
2019-04-05T12:50:33.745Z,9.80
2019-04-05T12:53:00.744Z,9.90
2019-04-05T12:55:27.540Z,9.80
2019-04-05T12:57:56.185Z,9.90
2019-04-05T13:00:25.717Z,10.00
2019-04-05T13:02:51.702Z,10.10
2019-04-05T13:05:20.662Z,10.30
2019-04-05T13:07:47.169Z,10.30
2019-04-05T13:10:13.993Z,10.30
2019-04-05T13:12:40.768Z,10.20
2019-04-05T13:15:13.728Z,10.30
2019-04-05T13:17:36.396Z,10.60
2019-04-05T13:20:07.880Z,10.20
2019-04-05T13:22:34.712Z,10.20
2019-04-05T13:25:01.558Z,10.20
2019-04-05T13:27:28.360Z,10.50
2019-04-05T13:29:55.201Z,10.50
2019-04-05T13:32:22.528Z,10.30
2019-04-05T13:34:49.373Z,9.90
2019-04-05T13:37:20.606Z,9.70
2019-04-05T13:39:44.840Z,9.50
2019-04-05T13:42:11.686Z,9.20
2019-04-05T13:44:38.468Z,9.20
2019-04-05T13:47:08.087Z,9.20
2019-04-05T13:49:34.737Z,9.10
2019-04-05T13:52:01.524Z,9.30
2019-04-05T13:54:28.365Z,9.40
2019-04-05T13:56:55.150Z,9.50
2019-04-05T13:59:22.049Z,9.80
2019-04-05T14:01:51.471Z,9.90
2019-04-05T14:04:20.650Z,9.90
2019-04-05T14:06:46.168Z,10.10
2019-04-05T14:09:15.522Z,10.20
2019-04-05T14:11:41.629Z,9.70
2019-04-05T14:14:11.821Z,9.80
2019-04-05T14:16:38.389Z,9.80
2019-04-05T14:19:05.377Z,9.90
2019-04-05T14:21:40.215Z,10.10
2019-04-05T14:24:00.805Z,10.10
2019-04-05T14:26:29.341Z,9.90
2019-04-05T14:28:56.375Z,9.90
2019-04-05T14:31:23.157Z,9.90
2019-04-05T14:33:49.944Z,9.80
2019-04-05T14:36:16.780Z,9.60
2019-04-05T14:38:43.570Z,9.70
2019-04-05T14:41:10.404Z,9.90
2019-04-05T14:43:37.925Z,9.80
2019-04-05T14:46:04.928Z,9.70
2019-04-05T14:48:31.984Z,9.70
2019-04-05T14:50:58.911Z,9.70
2019-04-05T14:53:25.755Z,9.80
2019-04-05T14:55:52.629Z,9.90
2019-04-05T14:58:19.532Z,10.10
2019-04-05T15:00:48.270Z,10.20
2019-04-05T15:03:15.128Z,10.10
2019-04-05T15:05:42.067Z,9.90
2019-04-05T15:08:08.857Z,9.70
2019-04-05T15:10:35.709Z,9.80
2019-04-05T15:13:02.488Z,9.80
2019-04-05T15:15:29.431Z,9.90
2019-04-05T15:17:56.340Z,9.90
2019-04-05T15:20:23.172Z,10.00
2019-04-05T15:22:50.021Z,10.00
2019-04-05T15:25:18.779Z,10.10
2019-04-05T15:27:45.433Z,10.10
2019-04-05T15:30:15.074Z,10.20
2019-04-05T15:32:41.693Z,10.20
2019-04-05T15:35:08.544Z,10.10
2019-04-05T15:37:37.506Z,10.10
2019-04-05T15:40:06.101Z,10.00
2019-04-05T15:42:32.963Z,10.10
2019-04-05T15:44:59.744Z,10.10
2019-04-05T15:47:26.612Z,10.10
2019-04-05T15:49:53.444Z,10.20
2019-04-05T15:52:20.273Z,10.20
2019-04-05T15:54:47.140Z,10.40
2019-04-05T15:57:13.928Z,10.50
2019-04-05T15:59:40.761Z,10.70
2019-04-05T16:02:07.544Z,10.70
2019-04-05T16:04:34.421Z,10.80
2019-04-05T16:07:01.205Z,10.80
2019-04-05T16:09:28.054Z,10.90
2019-04-05T16:11:55.241Z,10.90
2019-04-05T16:14:22.111Z,11.00
2019-04-05T16:16:48.921Z,10.90
2019-04-05T16:19:15.808Z,10.60
2019-04-05T16:21:42.592Z,10.40
2019-04-05T16:24:09.449Z,10.30
2019-04-05T16:26:36.294Z,10.00
2019-04-05T16:29:03.290Z,9.80
2019-04-05T16:31:30.160Z,9.90
2019-04-05T16:33:56.949Z,10.00
2019-04-05T16:36:23.863Z,10.00
2019-04-05T16:38:50.910Z,9.90
2019-04-05T16:41:17.956Z,9.80
2019-04-05T16:43:44.845Z,9.70
2019-04-05T16:46:11.776Z,9.80
2019-04-05T16:48:38.689Z,9.70
2019-04-05T16:51:05.632Z,9.70
2019-04-05T16:53:32.679Z,9.70
2019-04-05T16:55:59.725Z,9.60
2019-04-05T16:58:26.668Z,9.50
2019-04-05T17:00:53.612Z,9.50
2019-04-05T17:03:20.557Z,9.40
2019-04-05T17:05:47.502Z,9.40
2019-04-05T17:08:14.548Z,9.30
2019-04-05T17:10:41.493Z,9.30
2019-04-05T17:13:08.372Z,9.20
2019-04-05T17:15:35.156Z,9.10
2019-04-05T17:18:02.111Z,9.10
2019-04-05T17:20:29.016Z,8.90
2019-04-05T17:22:58.287Z,8.80
2019-04-05T17:25:24.677Z,8.80
2019-04-05T17:27:51.473Z,8.70
2019-04-05T17:30:18.252Z,8.70
2019-04-05T17:32:45.090Z,8.60
2019-04-05T17:35:12.124Z,8.60
2019-04-05T17:37:38.910Z,8.50
2019-04-05T17:40:07.404Z,8.40
2019-04-05T17:42:34.936Z,8.30
2019-04-05T17:45:02.049Z,8.20
2019-04-05T17:47:28.823Z,8.10
2019-04-05T17:49:58.580Z,8.10
2019-04-05T17:52:25.429Z,8.00
2019-04-05T17:54:52.429Z,7.90
2019-04-05T17:57:19.764Z,7.80
2019-04-05T17:59:46.760Z,7.90
2019-04-05T18:02:13.768Z,7.80
2019-04-05T18:04:40.560Z,7.80
2019-04-05T18:07:27.137Z,7.80
2019-04-05T18:09:53.980Z,7.80
2019-04-05T18:12:20.809Z,7.60
2019-04-05T18:14:49.955Z,7.70
2019-04-05T18:17:16.244Z,7.70
2019-04-05T18:19:43.080Z,7.70
2019-04-05T18:22:09.917Z,7.80
2019-04-05T18:24:36.756Z,7.80
2019-04-05T18:27:03.597Z,7.70
2019-04-05T18:29:30.380Z,7.60
2019-04-05T18:31:57.292Z,7.50
2019-04-05T18:34:24.129Z,7.40
2019-04-05T18:36:50.917Z,7.30
2019-04-05T18:39:17.707Z,7.30
2019-04-05T18:41:44.585Z,7.30
2019-04-05T18:44:11.420Z,7.30
2019-04-05T18:46:38.326Z,7.30
2019-04-05T18:49:05.377Z,7.30
2019-04-05T18:51:32.253Z,7.30
2019-04-05T18:53:59.264Z,7.30
2019-04-05T18:56:26.206Z,7.30
2019-04-05T18:58:53.209Z,7.20
2019-04-05T19:01:20.331Z,7.10
2019-04-05T19:03:49.543Z,7.10
2019-04-05T19:06:17.772Z,7.10
2019-04-05T19:08:46.254Z,7.10
2019-04-05T19:11:14.016Z,7.00
2019-04-05T19:13:41.380Z,7.00
2019-04-05T19:16:08.635Z,6.90
2019-04-05T19:18:35.778Z,6.90
2019-04-05T19:21:03.226Z,6.90
2019-04-05T19:23:31.831Z,6.90
2019-04-05T19:25:58.753Z,6.90
2019-04-05T19:28:27.233Z,6.80
2019-04-05T19:48:34.872Z,6.60
2019-04-05T19:50:45.808Z,6.60
2019-04-05T19:53:12.686Z,6.60
2019-04-05T19:55:41.277Z,6.70
2019-04-05T19:58:08.279Z,6.70
2019-04-05T20:00:35.223Z,6.60
2019-04-05T20:03:02.270Z,6.40
2019-04-05T20:05:29.214Z,6.10
2019-04-05T20:07:56.261Z,6.00
2019-04-05T20:10:23.205Z,5.90
2019-04-05T20:12:50.252Z,5.90
2019-04-05T20:15:17.236Z,5.90
2019-04-05T20:17:44.247Z,5.90
2019-04-05T20:20:11.497Z,5.90
2019-04-05T20:22:38.439Z,5.80
2019-04-05T20:25:05.794Z,5.80
2019-04-05T20:27:32.634Z,5.70
2019-04-05T20:29:59.578Z,5.70
2019-04-05T20:32:26.533Z,5.80
2019-04-05T20:34:53.572Z,5.90
2019-04-05T20:37:20.514Z,6.00
2019-04-05T20:39:47.571Z,6.20
2019-04-05T20:42:14.629Z,6.20
2019-04-05T20:44:41.551Z,6.30
2019-04-05T20:47:08.597Z,6.40
2019-04-05T20:49:35.542Z,6.30
2019-04-05T20:52:02.588Z,6.40
2019-04-05T20:54:29.637Z,6.50
2019-04-05T20:56:56.579Z,6.50
2019-04-05T20:59:23.626Z,6.50
2019-04-05T21:01:50.676Z,6.60
2019-04-05T21:04:17.617Z,6.70
2019-04-05T21:06:44.561Z,6.70
2019-04-05T21:09:11.607Z,6.70
2019-04-05T21:11:38.552Z,6.80
2019-04-05T21:14:05.496Z,6.80
2019-04-05T21:16:32.440Z,6.80
2019-04-05T21:18:59.486Z,6.80
2019-04-05T21:21:26.535Z,6.70
2019-04-05T21:23:53.377Z,6.80
2019-04-05T21:26:20.422Z,6.80
2019-04-05T21:28:47.367Z,6.90
2019-04-05T21:31:14.413Z,6.80
2019-04-05T21:33:41.357Z,6.90
2019-04-05T21:36:08.301Z,6.90
2019-04-05T21:38:35.349Z,6.70
2019-04-05T21:41:02.396Z,6.70
2019-04-05T21:43:29.349Z,6.80
2019-04-05T21:45:56.283Z,6.80
2019-04-05T21:48:24.356Z,6.90
2019-04-05T21:50:51.232Z,7.00
2019-04-05T21:53:18.269Z,7.10
2019-04-05T21:55:45.186Z,7.00
2019-04-05T21:58:12.233Z,6.90
2019-04-05T22:00:41.265Z,6.90
2019-04-05T22:03:08.170Z,7.00
2019-04-05T22:05:35.114Z,7.10
2019-04-05T22:10:42.949Z,7.10
2019-04-05T22:13:09.873Z,7.10
2019-04-05T22:15:36.817Z,7.00
2019-04-05T22:18:03.864Z,7.00
2019-04-05T22:20:30.812Z,7.00
2019-04-05T22:22:57.753Z,7.10
2019-04-05T22:25:24.800Z,7.10
2019-04-05T22:27:51.846Z,7.20
2019-04-05T22:30:18.995Z,7.20
2019-04-05T22:32:45.938Z,7.30
2019-04-05T22:35:12.985Z,7.30
2019-04-05T22:37:39.930Z,7.30
2019-04-05T22:40:07.216Z,7.30
2019-04-05T22:42:34.236Z,7.30
2019-04-05T22:45:01.173Z,7.30
2019-04-05T22:47:28.221Z,7.30
2019-04-05T22:49:55.266Z,7.30
2019-04-05T22:52:22.517Z,7.40
2019-04-05T22:54:49.461Z,7.40
2019-04-05T22:57:16.508Z,7.50
2019-04-05T22:59:43.511Z,7.40
2019-04-05T23:02:10.601Z,7.40
2019-04-05T23:04:37.752Z,7.30
2019-04-05T23:07:04.899Z,7.30
2019-04-05T23:09:31.922Z,7.40
2019-04-05T23:11:58.992Z,7.40
2019-04-05T23:14:25.937Z,7.20
2019-04-05T23:16:52.983Z,7.20
2019-04-05T23:19:19.928Z,7.20
2019-04-05T23:21:46.974Z,7.20
2019-04-05T23:24:14.858Z,7.20
2019-04-05T23:26:41.784Z,7.20
2019-04-05T23:29:08.832Z,7.20
2019-04-05T23:31:35.879Z,7.30
2019-04-05T23:34:02.828Z,7.40
2019-04-05T23:36:29.767Z,7.40
2019-04-05T23:38:56.815Z,7.40
2019-04-05T23:41:23.759Z,7.40
2019-04-05T23:43:50.804Z,7.40
2019-04-05T23:46:17.748Z,7.40
2019-04-05T23:48:44.795Z,7.30
2019-04-05T23:51:11.776Z,7.30
2019-04-05T23:53:38.785Z,7.30
2019-04-05T23:56:06.260Z,7.40
2019-04-05T23:58:33.083Z,7.40
